createdAt,value
2022-12-13T00:02:27.237Z,51.83
2022-12-13T00:04:58.191Z,50.93
2022-12-13T00:07:28.953Z,50.67
2022-12-13T00:09:59.620Z,50.87
2022-12-13T00:12:30.443Z,54.00
2022-12-13T00:15:01.142Z,53.00
2022-12-13T00:17:33.552Z,54.83
2022-12-13T00:20:05.376Z,56.77
2022-12-13T00:22:36.069Z,54.73
2022-12-13T00:25:08.078Z,54.47
2022-12-13T00:27:38.723Z,60.27
2022-12-13T00:30:11.290Z,55.03
2022-12-13T00:32:41.941Z,53.87
2022-12-13T00:35:12.972Z,50.60
2022-12-13T00:37:43.931Z,57.50
2022-12-13T00:40:16.415Z,56.97
2022-12-13T00:42:47.159Z,51.97
2022-12-13T00:45:18.689Z,55.57
2022-12-13T00:47:49.574Z,58.97
2022-12-13T00:50:20.486Z,56.73
2022-12-13T00:52:51.161Z,51.27
2022-12-13T00:55:21.973Z,56.97
2022-12-13T00:57:52.750Z,53.83
2022-12-13T01:00:23.614Z,58.33
2022-12-13T01:02:55.484Z,56.33
2022-12-13T01:05:47.519Z,53.63
2022-12-13T01:07:58.813Z,52.47
2022-12-13T01:10:29.531Z,50.27
2022-12-13T01:13:00.463Z,50.53
2022-12-13T01:15:31.227Z,49.83
2022-12-13T01:18:01.840Z,42.83
2022-12-13T01:20:32.636Z,54.33
2022-12-13T01:23:03.386Z,52.00
2022-12-13T01:25:34.593Z,49.53
2022-12-13T01:28:05.526Z,47.53
2022-12-13T01:30:36.209Z,51.63
2022-12-13T01:33:13.928Z,49.47
2022-12-13T01:35:39.684Z,47.43
2022-12-13T01:38:15.861Z,52.80
2022-12-13T01:40:47.699Z,49.37
2022-12-13T01:43:19.158Z,43.13
2022-12-13T01:45:50.220Z,52.03
2022-12-13T01:48:24.282Z,49.30
2022-12-13T01:50:57.539Z,43.43
2022-12-13T01:53:31.145Z,49.60
2022-12-13T01:58:43.536Z,51.47
2022-12-13T02:01:14.232Z,48.47
2022-12-13T02:03:45.966Z,42.90
2022-12-13T02:08:58.201Z,47.87
2022-12-13T02:11:29.645Z,32.00
2022-12-13T02:14:00.415Z,36.63
2022-12-13T02:16:38.170Z,31.93
2022-12-13T02:22:13.095Z,29.73
2022-12-13T02:25:04.335Z,31.13
2022-12-13T02:28:00.714Z,28.37
2022-12-13T02:30:30.896Z,26.37
2022-12-13T02:33:24.019Z,26.40
2022-12-13T02:36:00.385Z,31.10
2022-12-13T02:38:34.534Z,35.30
2022-12-13T02:41:10.085Z,35.30
2022-12-13T02:43:45.456Z,25.83
2022-12-13T02:46:21.070Z,29.70
2022-12-13T02:48:54.365Z,28.47
2022-12-13T02:51:26.594Z,36.90
2022-12-13T02:53:57.291Z,32.67
2022-12-13T02:56:27.936Z,31.53
2022-12-13T02:59:00.072Z,35.57
2022-12-13T03:01:44.776Z,35.63
2022-12-13T03:04:26.053Z,33.17
2022-12-13T03:06:56.696Z,27.17
2022-12-13T03:09:36.034Z,33.37
2022-12-13T03:12:32.210Z,35.60
2022-12-13T03:15:05.982Z,34.30
2022-12-13T03:17:39.945Z,29.00
2022-12-13T03:20:22.668Z,33.80
2022-12-13T03:22:45.287Z,32.67
2022-12-13T03:25:31.895Z,32.90
2022-12-13T03:27:49.584Z,33.13
2022-12-13T03:30:20.269Z,40.33
2022-12-13T03:32:50.987Z,32.33
2022-12-13T03:35:22.598Z,34.40
2022-12-13T03:37:54.273Z,35.87
2022-12-13T03:40:25.201Z,31.33
2022-12-13T03:42:56.075Z,26.53
2022-12-13T03:45:26.835Z,25.33
2022-12-13T03:47:57.524Z,31.13
2022-12-13T03:50:28.189Z,38.33
2022-12-13T03:53:02.329Z,35.47
2022-12-13T03:55:33.118Z,39.90
2022-12-13T03:58:07.905Z,33.43
2022-12-13T04:00:36.159Z,35.80
2022-12-13T04:03:07.293Z,35.23
2022-12-13T04:05:38.238Z,38.67
2022-12-13T04:08:21.745Z,42.23
2022-12-13T04:10:41.896Z,38.87
2022-12-13T04:13:32.209Z,39.33
2022-12-13T04:16:03.990Z,37.37
2022-12-13T04:18:34.641Z,41.30
2022-12-13T04:21:05.463Z,39.50
2022-12-13T04:23:36.215Z,35.37
2022-12-13T04:26:07.202Z,35.73
2022-12-13T04:28:37.945Z,35.03
2022-12-13T04:31:08.938Z,33.67
2022-12-13T04:33:39.917Z,31.00
2022-12-13T04:36:11.759Z,35.10
2022-12-13T04:38:42.468Z,38.57
2022-12-13T04:41:16.900Z,32.43
2022-12-13T04:43:49.203Z,33.00
2022-12-13T04:46:20.199Z,37.47
2022-12-13T04:48:50.933Z,34.63
2022-12-13T04:51:21.674Z,31.07
2022-12-13T04:53:52.936Z,33.90
2022-12-13T04:56:23.731Z,34.50
2022-12-13T04:58:54.839Z,36.73
2022-12-13T05:01:25.531Z,35.40
2022-12-13T05:03:56.250Z,28.07
2022-12-13T05:06:27.899Z,21.73
2022-12-13T05:09:00.957Z,28.73
2022-12-13T05:11:35.514Z,23.80
2022-12-13T05:14:03.695Z,24.50
2022-12-13T05:16:34.703Z,24.93
2022-12-13T05:19:05.424Z,27.47
2022-12-13T05:21:36.049Z,28.17
2022-12-13T05:24:08.163Z,37.00
2022-12-13T05:26:39.268Z,34.67
2022-12-13T05:31:47.340Z,31.53
2022-12-13T05:34:18.048Z,33.47
2022-12-13T05:36:48.799Z,34.10
2022-12-13T05:39:27.842Z,34.73
2022-12-13T05:41:52.213Z,35.30
2022-12-13T05:44:22.906Z,32.30
2022-12-13T05:46:53.727Z,34.07
2022-12-13T05:49:24.417Z,30.67
2022-12-13T05:51:55.095Z,32.90
2022-12-13T05:54:25.968Z,32.57
2022-12-13T05:56:56.665Z,64.10
2022-12-13T05:59:27.311Z,43.90
2022-12-13T06:01:58.063Z,31.63
2022-12-13T06:04:29.121Z,35.23
2022-12-13T06:06:59.878Z,33.23
2022-12-13T06:09:30.953Z,33.07
2022-12-13T06:12:01.624Z,52.87
2022-12-13T06:14:32.330Z,28.47
2022-12-13T06:17:03.251Z,32.97
2022-12-13T06:19:34.329Z,34.27
2022-12-13T06:22:05.202Z,28.33
2022-12-13T06:24:35.814Z,29.90
2022-12-13T06:27:06.856Z,218.73
2022-12-13T06:29:37.873Z,73.70
2022-12-13T06:32:09.163Z,164.40
2022-12-13T06:34:42.048Z,187.00
2022-12-13T06:37:15.418Z,400.73
2022-12-13T06:39:46.718Z,239.87
2022-12-13T06:42:22.306Z,130.17
2022-12-13T06:44:55.847Z,103.83
2022-12-13T06:47:31.465Z,33.23
2022-12-13T06:50:04.890Z,28.73
2022-12-13T06:52:33.827Z,26.90
2022-12-13T06:55:05.454Z,28.47
2022-12-13T06:57:37.356Z,24.07
2022-12-13T07:00:12.787Z,33.63
2022-12-13T07:02:43.552Z,22.57
2022-12-13T07:05:14.471Z,24.07
2022-12-13T07:07:45.147Z,25.53
2022-12-13T07:10:21.908Z,25.50
2022-12-13T07:12:48.159Z,27.93
2022-12-13T07:15:19.172Z,34.77
2022-12-13T07:17:53.056Z,41.30
2022-12-13T07:20:23.657Z,29.40
2022-12-13T07:22:58.904Z,31.37
2022-12-13T07:25:29.661Z,125.27
2022-12-13T07:28:03.328Z,63.70
2022-12-13T07:30:40.528Z,21.60
2022-12-13T07:33:09.354Z,24.93
2022-12-13T07:35:40.511Z,27.30
2022-12-13T07:38:12.602Z,26.67
2022-12-13T07:40:43.609Z,26.57
2022-12-13T07:43:16.376Z,33.17
2022-12-13T07:45:47.555Z,28.57
2022-12-13T07:48:18.359Z,24.70
2022-12-13T07:50:54.357Z,25.60
2022-12-13T07:53:22.158Z,28.67
2022-12-13T07:55:53.239Z,26.83
2022-12-13T07:58:24.036Z,24.53
2022-12-13T08:00:54.842Z,24.60
2022-12-13T08:03:26.589Z,27.80
2022-12-13T08:06:05.186Z,24.93
2022-12-13T08:08:36.496Z,27.47
2022-12-13T08:11:08.896Z,21.23
2022-12-13T08:13:40.844Z,20.43
2022-12-13T08:16:26.574Z,22.17
2022-12-13T08:18:48.249Z,27.37
2022-12-13T08:21:51.726Z,21.17
2022-12-13T08:23:51.404Z,25.00
2022-12-13T08:26:22.177Z,22.43
2022-12-13T08:28:52.861Z,26.07
2022-12-13T08:31:23.638Z,18.47
2022-12-13T08:33:54.735Z,20.60
2022-12-13T08:36:25.419Z,22.23
2022-12-13T08:38:58.113Z,19.83
2022-12-13T08:41:28.810Z,21.97
2022-12-13T08:43:59.531Z,24.67
2022-12-13T08:46:30.427Z,25.33
2022-12-13T08:49:01.377Z,27.13
2022-12-13T08:51:35.637Z,20.33
2022-12-13T08:54:10.726Z,21.53
2022-12-13T08:56:37.153Z,21.23
2022-12-13T08:59:07.936Z,21.07
2022-12-13T09:01:38.724Z,21.90
2022-12-13T09:04:09.475Z,18.83
2022-12-13T09:06:40.240Z,22.33
2022-12-13T09:09:11.073Z,20.10
2022-12-13T09:11:42.875Z,20.43
2022-12-13T09:14:14.050Z,18.67
2022-12-13T09:16:50.521Z,19.27
2022-12-13T09:19:26.184Z,19.20
2022-12-13T09:21:49.867Z,20.43
2022-12-13T09:24:24.358Z,22.03
2022-12-13T09:26:57.365Z,20.60
2022-12-13T09:29:26.057Z,18.57
2022-12-13T09:31:56.963Z,19.50
2022-12-13T09:34:27.828Z,22.47
2022-12-13T09:37:01.556Z,37.90
2022-12-13T09:39:32.313Z,33.20
2022-12-13T09:42:10.645Z,35.07
2022-12-13T09:44:44.175Z,26.10
2022-12-13T09:47:16.091Z,29.20
2022-12-13T09:49:52.184Z,30.07
2022-12-13T09:52:23.103Z,29.97
2022-12-13T09:54:57.125Z,31.27
2022-12-13T09:57:33.926Z,33.70
2022-12-13T10:00:06.035Z,31.93
2022-12-13T10:02:39.999Z,27.83
2022-12-13T10:05:34.054Z,25.87
2022-12-13T10:08:01.781Z,24.43
2022-12-13T10:10:32.453Z,27.10
2022-12-13T10:13:07.540Z,22.20
2022-12-13T10:15:40.770Z,22.53
2022-12-13T10:18:15.955Z,22.97
2022-12-13T10:20:48.362Z,20.67
2022-12-13T10:23:53.064Z,24.23
2022-12-13T10:26:02.819Z,25.20
2022-12-13T10:28:33.684Z,22.97
2022-12-13T10:31:04.719Z,33.47
2022-12-13T10:33:38.724Z,25.73
2022-12-13T10:36:22.201Z,28.87
2022-12-13T10:38:51.506Z,316.17
2022-12-13T10:41:31.774Z,181.13
2022-12-13T10:44:13.220Z,23.93
2022-12-13T10:46:46.859Z,20.03
2022-12-13T10:49:21.426Z,20.13
2022-12-13T10:51:54.114Z,18.50
2022-12-13T10:54:29.855Z,23.73
2022-12-13T10:57:02.855Z,23.43
2022-12-13T10:59:38.236Z,18.97
2022-12-13T11:05:11.105Z,20.80
2022-12-13T11:07:40.271Z,21.77
2022-12-13T11:10:27.334Z,22.27
2022-12-13T11:13:01.683Z,20.07
2022-12-13T11:15:34.715Z,19.50
2022-12-13T11:18:08.609Z,20.30
2022-12-13T11:20:41.632Z,22.87
2022-12-13T11:23:18.293Z,19.33
2022-12-13T11:25:49.465Z,20.93
2022-12-13T11:28:28.011Z,17.83
2022-12-13T11:33:49.951Z,19.43
2022-12-13T11:36:26.816Z,18.17
2022-12-13T11:39:05.383Z,18.13
2022-12-13T11:41:39.237Z,19.97
2022-12-13T11:44:14.867Z,17.07
2022-12-13T11:46:50.060Z,16.10
2022-12-13T11:49:23.116Z,17.20
2022-12-13T11:51:57.352Z,19.17
2022-12-13T11:54:31.984Z,18.40
2022-12-13T11:57:07.330Z,14.43
2022-12-13T11:59:42.735Z,16.03
2022-12-13T12:02:18.700Z,17.43
2022-12-13T12:04:58.314Z,17.77
2022-12-13T12:07:33.310Z,58.30
2022-12-13T12:10:22.008Z,41.83
2022-12-13T12:12:55.988Z,35.70
2022-12-13T12:15:30.206Z,57.43
2022-12-13T12:18:00.910Z,24.60
2022-12-13T12:20:36.834Z,24.07
2022-12-13T12:23:29.119Z,57.40
2022-12-13T12:26:03.574Z,26.17
2022-12-13T12:28:44.118Z,105.53
2022-12-13T12:33:55.330Z,22.63
2022-12-13T12:36:37.220Z,22.47
2022-12-13T12:45:55.879Z,22.67
2022-12-13T12:50:56.179Z,21.47
2022-12-13T12:53:38.685Z,18.17
2022-12-13T12:56:17.984Z,20.37
2022-12-13T12:58:51.753Z,24.17
2022-12-13T13:01:43.545Z,20.97
2022-12-13T13:04:09.495Z,18.97
2022-12-13T13:09:25.230Z,20.13
2022-12-13T13:11:57.485Z,22.20
2022-12-13T13:14:35.189Z,22.90
2022-12-13T13:17:38.020Z,17.30
2022-12-13T13:23:39.100Z,26.10
2022-12-13T13:26:07.515Z,34.73
2022-12-13T13:28:19.653Z,29.63
2022-12-13T13:31:08.275Z,24.90
2022-12-13T13:33:57.472Z,30.40
2022-12-13T13:39:57.269Z,22.80
2022-12-13T13:42:29.778Z,242.50
2022-12-13T13:45:23.524Z,648.90
2022-12-13T13:48:19.289Z,590.00
2022-12-13T13:51:29.451Z,1044.47
2022-12-13T13:54:43.040Z,535.23
2022-12-13T14:00:25.423Z,432.17
2022-12-13T14:03:33.737Z,333.13
2022-12-13T14:06:38.426Z,93.73
2022-12-13T14:09:38.344Z,55.00
2022-12-13T14:12:47.987Z,45.77
2022-12-13T14:15:51.236Z,39.20
2022-12-13T14:19:12.825Z,38.50
2022-12-13T14:22:07.734Z,55.87
2022-12-13T14:24:44.013Z,172.23
2022-12-13T14:27:21.013Z,404.40
2022-12-13T14:30:26.870Z,95.27
2022-12-13T14:32:50.628Z,114.93
2022-12-13T14:35:27.277Z,92.77
2022-12-13T14:38:05.968Z,130.67
2022-12-13T14:40:39.401Z,53.23
2022-12-13T14:43:25.445Z,247.93
2022-12-13T14:45:58.967Z,68.00
2022-12-13T14:48:32.448Z,74.07
2022-12-13T14:51:03.531Z,204.10
2022-12-13T14:56:28.802Z,724.53
2022-12-13T14:58:56.222Z,443.80
2022-12-13T15:01:33.169Z,189.97
2022-12-13T15:04:22.970Z,221.57
2022-12-13T15:06:58.780Z,230.60
2022-12-13T15:09:30.366Z,112.00
2022-12-13T15:12:25.451Z,115.30
2022-12-13T15:14:59.729Z,366.70
2022-12-13T15:17:34.852Z,433.13
2022-12-13T15:23:07.148Z,275.67
2022-12-13T15:25:38.893Z,135.60
2022-12-13T15:28:18.205Z,58.20
2022-12-13T15:30:46.363Z,143.73
2022-12-13T15:33:28.920Z,73.53
2022-12-13T15:36:10.847Z,51.43
2022-12-13T15:38:44.427Z,84.63
2022-12-13T15:41:21.558Z,64.10
2022-12-13T15:43:54.980Z,51.50
2022-12-13T15:46:30.852Z,79.70
2022-12-13T15:49:03.420Z,56.70
2022-12-13T15:51:36.902Z,114.03
2022-12-13T15:54:18.581Z,74.73
2022-12-13T15:57:04.747Z,64.67
2022-12-13T15:59:37.778Z,83.70
2022-12-13T16:02:17.309Z,85.27
2022-12-13T16:04:48.563Z,73.97
2022-12-13T16:07:26.407Z,69.03
2022-12-13T16:09:59.123Z,83.40
2022-12-13T16:12:32.715Z,157.03
2022-12-13T16:15:28.723Z,72.50
2022-12-13T16:17:52.528Z,150.97
2022-12-13T16:20:24.667Z,98.27
2022-12-13T16:22:59.964Z,63.50
2022-12-13T16:25:27.990Z,50.03
2022-12-13T16:27:59.201Z,56.03
2022-12-13T16:30:42.868Z,40.47
2022-12-13T16:33:27.436Z,54.33
2022-12-13T16:35:46.928Z,44.63
2022-12-13T16:38:26.834Z,107.27
2022-12-13T16:40:54.400Z,216.47
2022-12-13T16:43:33.326Z,83.47
2022-12-13T16:46:00.581Z,114.07
2022-12-13T16:48:33.001Z,65.97
2022-12-13T16:51:05.805Z,68.53
2022-12-13T16:53:36.408Z,64.80
2022-12-13T16:56:10.656Z,172.77
2022-12-13T16:58:46.095Z,181.73
2022-12-13T17:01:14.881Z,79.93
2022-12-13T17:03:45.639Z,90.40
2022-12-13T17:06:18.889Z,83.53
2022-12-13T17:08:49.611Z,71.53
2022-12-13T17:11:20.448Z,79.63
2022-12-13T17:13:52.022Z,290.43
2022-12-13T17:16:24.345Z,96.77
2022-12-13T17:18:56.593Z,84.43
2022-12-13T17:21:28.886Z,109.83
2022-12-13T17:24:00.711Z,80.10
2022-12-13T17:26:33.301Z,54.87
2022-12-13T17:29:03.998Z,97.80
2022-12-13T17:31:36.015Z,90.93
2022-12-13T17:34:07.160Z,94.10
2022-12-13T17:36:37.907Z,143.30
2022-12-13T17:39:08.584Z,122.70
2022-12-13T17:41:39.521Z,129.00
2022-12-13T17:44:10.468Z,106.33
2022-12-13T17:46:41.347Z,114.33
2022-12-13T17:49:14.706Z,147.57
2022-12-13T17:51:51.259Z,104.57
2022-12-13T17:54:17.802Z,265.07
2022-12-13T17:56:48.823Z,110.30
2022-12-13T17:59:20.210Z,125.93
2022-12-13T18:01:51.315Z,114.43
2022-12-13T18:04:22.623Z,257.60
2022-12-13T18:06:53.870Z,173.33
2022-12-13T18:09:24.764Z,107.33
2022-12-13T18:11:55.438Z,150.20
2022-12-13T18:14:26.448Z,222.33
2022-12-13T18:16:57.183Z,163.60
2022-12-13T18:19:29.411Z,90.10
2022-12-13T18:22:01.509Z,235.70
2022-12-13T18:24:32.604Z,123.07
2022-12-13T18:27:03.230Z,313.73
2022-12-13T18:29:34.091Z,198.67
2022-12-13T18:32:04.926Z,100.73
2022-12-13T18:34:35.713Z,267.30
2022-12-13T18:37:06.380Z,145.87
2022-12-13T18:39:37.070Z,129.73
2022-12-13T18:42:08.075Z,79.23
2022-12-13T18:44:38.711Z,155.70
2022-12-13T18:47:10.412Z,145.37
2022-12-13T18:49:41.334Z,274.00
2022-12-13T18:52:13.615Z,181.67
2022-12-13T18:54:54.261Z,217.93
2022-12-13T18:57:20.561Z,105.37
2022-12-13T18:59:54.301Z,98.47
2022-12-13T19:05:03.140Z,152.67
2022-12-13T19:07:33.804Z,85.77
2022-12-13T19:10:05.226Z,169.20
2022-12-13T19:12:36.325Z,242.70
2022-12-13T19:15:09.095Z,142.13
2022-12-13T19:17:39.728Z,141.40
2022-12-13T19:20:13.044Z,298.60
2022-12-13T19:22:44.382Z,98.17
2022-12-13T19:25:16.681Z,142.10
2022-12-13T19:27:48.944Z,150.80
2022-12-13T19:30:21.387Z,110.67
2022-12-13T19:32:57.323Z,171.40
2022-12-13T19:35:28.062Z,80.33
2022-12-13T19:37:58.723Z,79.63
2022-12-13T19:40:48.022Z,139.80
2022-12-13T19:43:20.310Z,236.97
2022-12-13T19:45:51.200Z,173.60
2022-12-13T19:48:21.842Z,156.83
2022-12-13T19:50:52.584Z,183.73
2022-12-13T19:53:23.350Z,140.83
2022-12-13T19:55:54.363Z,120.07
2022-12-13T19:58:25.086Z,147.87
2022-12-13T20:00:58.212Z,209.83
2022-12-13T20:03:29.371Z,130.60
2022-12-13T20:06:01.230Z,285.73
2022-12-13T20:08:32.333Z,268.63
2022-12-13T20:11:05.754Z,234.43
2022-12-13T20:13:36.542Z,128.27
2022-12-13T20:16:08.476Z,150.00
2022-12-13T20:18:39.851Z,122.70
2022-12-13T20:21:14.287Z,164.20
2022-12-13T20:23:48.897Z,251.67
2022-12-13T20:26:21.690Z,182.40
2022-12-13T20:28:52.676Z,192.47
2022-12-13T20:31:25.219Z,233.53
2022-12-13T20:33:58.260Z,139.33
2022-12-13T20:36:31.565Z,204.77
2022-12-13T20:39:04.895Z,153.00
2022-12-13T20:41:37.780Z,106.13
2022-12-13T20:44:11.011Z,218.67
2022-12-13T20:49:20.563Z,145.70
2022-12-13T20:51:51.275Z,146.70
2022-12-13T20:54:22.030Z,135.67
2022-12-13T20:56:52.763Z,317.90
2022-12-13T20:59:23.867Z,102.20
2022-12-13T21:01:54.574Z,352.33
2022-12-13T21:04:25.266Z,319.20
2022-12-13T21:09:42.433Z,264.57
2022-12-13T21:12:13.103Z,148.53
2022-12-13T21:14:43.789Z,127.07
2022-12-13T21:17:14.566Z,117.47
2022-12-13T21:19:48.844Z,148.33
2022-12-13T21:22:19.458Z,210.87
2022-12-13T21:24:50.314Z,173.43
2022-12-13T21:27:21.056Z,321.03
2022-12-13T21:29:51.707Z,96.80
2022-12-13T21:32:22.442Z,240.90
2022-12-13T21:34:53.231Z,89.37
2022-12-13T21:37:24.002Z,230.57
2022-12-13T21:39:55.356Z,229.40
2022-12-13T21:42:36.570Z,200.00
2022-12-13T21:45:25.858Z,138.97
2022-12-13T21:48:05.535Z,281.40
2022-12-13T21:50:37.094Z,184.83
2022-12-13T21:53:14.516Z,355.90
2022-12-13T21:55:51.449Z,449.63
2022-12-13T21:58:50.155Z,285.37
2022-12-13T22:04:05.429Z,98.27
2022-12-13T22:06:35.220Z,137.27
2022-12-13T22:09:06.254Z,161.63
2022-12-13T22:11:38.081Z,169.30
2022-12-13T22:16:59.908Z,126.03
2022-12-13T22:19:30.807Z,136.67
2022-12-13T22:22:01.551Z,255.23
2022-12-13T22:24:32.326Z,182.67
2022-12-13T22:27:03.624Z,67.17
2022-12-13T22:29:34.302Z,201.13
2022-12-13T22:32:05.094Z,207.30
2022-12-13T22:34:35.899Z,224.50
2022-12-13T22:37:06.578Z,195.77
2022-12-13T22:39:37.308Z,121.73
2022-12-13T22:42:08.128Z,348.50
2022-12-13T22:44:39.073Z,355.07
2022-12-13T22:47:09.646Z,354.80
2022-12-13T22:49:40.301Z,147.13
2022-12-13T22:52:11.003Z,102.27
2022-12-13T22:54:41.661Z,102.80
2022-12-13T22:57:12.304Z,229.97
2022-12-13T22:59:43.102Z,149.37
2022-12-13T23:02:13.982Z,162.27
2022-12-13T23:04:45.116Z,128.57
2022-12-13T23:07:15.707Z,178.50
2022-12-13T23:09:46.481Z,140.67
2022-12-13T23:12:35.870Z,363.37
2022-12-13T23:15:07.878Z,286.77
2022-12-13T23:17:38.560Z,192.47
2022-12-13T23:20:13.454Z,83.23
2022-12-13T23:22:44.130Z,247.93
2022-12-13T23:25:14.967Z,217.33
2022-12-13T23:27:45.745Z,85.83
2022-12-13T23:30:16.962Z,182.73
2022-12-13T23:32:47.635Z,309.87
2022-12-13T23:35:18.501Z,282.07
2022-12-13T23:37:49.261Z,99.27
2022-12-13T23:40:20.077Z,403.57
2022-12-13T23:42:50.689Z,168.63
2022-12-13T23:45:22.069Z,324.97
2022-12-13T23:47:52.687Z,188.47
2022-12-13T23:50:23.290Z,265.67
2022-12-13T23:52:53.910Z,176.07
2022-12-13T23:55:24.534Z,219.17
2022-12-13T23:57:55.124Z,277.37
